Boeing Vertol CH-47D Chinook from 298th RNLAF at Volkel.
 Regi:D-663  LARGER
 MSN Year:M3663 1996
 Date of picture:2019-06-13 10:10
 Discription:Demonstrating fire-fighting with a bamboo-bucket.
 Position:024R
 Logs: 480838 D-663 TITAN4 2019-06-13 08:48:04 CH-47D Netherlands 298sqn IJsselstein, NL 3601 1000
 Metar SA 13/06/2019 09:55 METAR EHVK 130955Z AUTO 19015KT 150V250 9999 FEW034 SCT045 BKN053 17/09 Q1011 BLU 19015G25KT 9999 SCT030=
 Hits: 47 ID: 2362

Debriefing: Photographed movements of Airports in NW-Europe.
The images of our site attendant is in authorisation from Queen of Sky.
Copying of images of this site have been prohibited in which manner without the authorisation of the photographer.
In behalf of the crew :"Thank you visiting us" - Contact
Factsheets Boeing Vertol, CH-47D Chinook, 298th RNLAF, made by De Plane! © 2006 - 2022 All rights reserved


.